createdAt,value
2022-07-28T11:27:03.712Z,82.33
2022-07-28T11:27:58.923Z,81.73
2022-07-28T11:28:58.838Z,81.04
2022-07-28T11:29:58.833Z,78.62
2022-07-28T11:30:58.901Z,79.09
2022-07-28T11:31:58.884Z,78.94
2022-07-28T11:32:58.974Z,83.71
2022-07-28T11:33:58.867Z,86.92
2022-07-28T11:34:58.840Z,84.99
2022-07-28T11:35:58.808Z,81.39
2022-07-28T11:36:58.830Z,83.01
2022-07-28T11:37:58.892Z,83.19
2022-07-28T11:38:58.902Z,83.88
2022-07-28T11:39:58.900Z,84.05
2022-07-28T11:40:58.866Z,81.10
2022-07-28T11:41:58.890Z,84.38
2022-07-28T11:42:58.919Z,86.02
2022-07-28T11:43:58.870Z,82.10
2022-07-28T11:44:59.303Z,81.73
2022-07-28T11:45:58.950Z,79.03
2022-07-28T11:46:58.904Z,79.27
2022-07-28T11:47:59.052Z,78.99
2022-07-28T11:48:58.991Z,80.03
2022-07-28T11:49:59.453Z,82.69
2022-07-28T11:50:58.926Z,80.01
2022-07-28T11:51:58.877Z,81.97
2022-07-28T11:52:58.853Z,79.46
2022-07-28T11:53:58.953Z,80.70
2022-07-28T11:54:58.976Z,84.69
2022-07-28T11:56:02.925Z,84.73
2022-07-28T11:56:58.896Z,87.75
2022-07-28T11:57:58.904Z,86.43
2022-07-28T11:58:58.908Z,83.99
2022-07-28T11:59:59.034Z,82.75
2022-07-28T12:00:58.936Z,84.29
2022-07-28T12:01:58.935Z,82.34
2022-07-28T12:02:58.942Z,82.08
2022-07-28T12:03:59.412Z,81.52
2022-07-28T12:04:59.073Z,84.20
2022-07-28T12:05:59.010Z,81.84
2022-07-28T12:06:59.006Z,82.75
2022-07-28T12:07:58.972Z,85.38
2022-07-28T12:08:58.920Z,83.88
2022-07-28T12:09:58.996Z,82.68
2022-07-28T12:10:58.987Z,84.49
2022-07-28T12:11:58.905Z,83.40
2022-07-28T12:12:58.992Z,80.22
2022-07-28T12:13:59.013Z,80.91
2022-07-28T12:15:03.350Z,80.42
2022-07-28T12:15:59.003Z,84.13
2022-07-28T12:16:59.140Z,83.12
2022-07-28T12:17:59.017Z,88.44
2022-07-28T12:18:59.000Z,83.23
2022-07-28T12:19:59.288Z,86.33
2022-07-28T12:21:04.657Z,88.91
2022-07-28T12:21:58.992Z,88.77
2022-07-28T12:22:59.022Z,86.73
2022-07-28T12:23:59.132Z,83.45
2022-07-28T12:24:59.054Z,85.57
2022-07-28T12:25:59.018Z,86.44
2022-07-28T12:26:59.048Z,90.20
2022-07-28T12:27:59.042Z,84.47
2022-07-28T12:28:59.146Z,88.48
2022-07-28T12:29:59.052Z,86.34
2022-07-28T12:30:59.054Z,89.45
2022-07-28T12:31:59.339Z,87.35
2022-07-28T12:32:59.002Z,86.58
2022-07-28T12:33:59.302Z,81.72
2022-07-28T12:34:59.083Z,87.20
2022-07-28T12:35:59.048Z,82.52
2022-07-28T12:36:59.057Z,84.91
2022-07-28T12:37:59.055Z,82.39
2022-07-28T12:38:59.087Z,84.88
2022-07-28T12:39:59.731Z,85.05
2022-07-28T12:40:59.085Z,83.09
2022-07-28T12:41:59.030Z,80.61
2022-07-28T12:42:59.151Z,81.36
2022-07-28T12:43:59.038Z,82.35
2022-07-28T12:44:59.104Z,85.33
2022-07-28T12:45:59.165Z,86.73
2022-07-28T12:46:59.117Z,84.74
2022-07-28T12:47:59.089Z,84.94
2022-07-28T12:48:59.131Z,82.36
2022-07-28T12:50:00.549Z,83.68
2022-07-28T12:50:59.088Z,84.42
2022-07-28T12:51:59.144Z,83.36
2022-07-28T12:52:59.112Z,84.30
2022-07-28T12:53:59.108Z,83.78
2022-07-28T12:54:59.488Z,84.49
2022-07-28T12:55:59.119Z,86.11
2022-07-28T12:56:59.067Z,90.17
2022-07-28T12:57:59.099Z,89.59
2022-07-28T12:58:59.077Z,88.94
2022-07-28T12:59:59.234Z,84.90
2022-07-28T13:00:59.209Z,84.73
2022-07-28T13:01:59.280Z,84.96
2022-07-28T13:02:59.197Z,85.18
2022-07-28T13:03:59.089Z,83.50
2022-07-28T13:04:59.212Z,83.11
2022-07-28T13:05:59.138Z,85.26
2022-07-28T13:06:59.113Z,84.29
2022-07-28T13:07:59.164Z,83.67
2022-07-28T13:08:59.153Z,83.61
2022-07-28T13:10:00.481Z,83.82
2022-07-28T13:10:59.450Z,88.17
2022-07-28T13:11:59.182Z,84.13
2022-07-28T13:12:59.216Z,83.58
2022-07-28T13:13:59.118Z,84.88
2022-07-28T13:14:59.124Z,86.05
2022-07-28T13:15:59.220Z,85.12
2022-07-28T13:16:59.277Z,81.58
2022-07-28T13:17:59.185Z,84.97
2022-07-28T13:18:59.189Z,82.26
2022-07-28T13:19:59.225Z,86.48
2022-07-28T13:20:59.120Z,88.79
2022-07-28T13:22:01.880Z,86.66
2022-07-28T13:22:59.195Z,85.40
2022-07-28T13:23:59.190Z,83.16
2022-07-28T13:24:59.599Z,82.08
2022-07-28T13:25:59.195Z,84.48
2022-07-28T13:26:59.152Z,81.78
2022-07-28T13:27:59.184Z,80.51
2022-07-28T13:28:59.098Z,80.97
2022-07-28T13:29:59.231Z,84.04
2022-07-28T13:30:59.214Z,85.97
2022-07-28T13:31:59.253Z,82.72
2022-07-28T13:32:59.298Z,82.01
2022-07-28T13:33:59.219Z,79.15
2022-07-28T13:34:59.518Z,81.41
2022-07-28T13:35:59.146Z,81.19
2022-07-28T13:36:59.240Z,83.84
2022-07-28T13:37:59.233Z,80.90
2022-07-28T13:38:59.172Z,84.75
2022-07-28T13:39:59.283Z,81.07
2022-07-28T13:40:59.238Z,81.95
2022-07-28T13:41:59.575Z,84.75
2022-07-28T13:42:59.177Z,85.99
2022-07-28T13:43:59.241Z,84.80
2022-07-28T13:44:59.558Z,88.38
2022-07-28T13:46:00.162Z,86.98
2022-07-28T13:46:59.675Z,85.93
2022-07-28T13:47:59.367Z,86.36
2022-07-28T13:49:00.237Z,84.56
2022-07-28T13:49:59.723Z,85.31
2022-07-28T13:50:59.456Z,84.15
2022-07-28T13:51:59.504Z,85.10
2022-07-28T13:52:59.517Z,82.14
2022-07-28T13:53:59.483Z,81.13
2022-07-28T13:54:59.883Z,81.43
2022-07-28T13:55:59.569Z,82.27
2022-07-28T13:56:59.615Z,84.27
2022-07-28T13:57:59.617Z,83.82
2022-07-28T13:58:59.626Z,85.36
2022-07-28T13:59:59.630Z,88.54
2022-07-28T14:00:59.699Z,88.63
2022-07-28T14:01:59.662Z,85.62
2022-07-28T14:02:59.780Z,86.60
2022-07-28T14:03:59.617Z,86.53
2022-07-28T14:04:59.663Z,85.28
2022-07-28T14:05:59.615Z,83.04
2022-07-28T14:06:59.640Z,82.28
2022-07-28T14:08:00.025Z,86.04
2022-07-28T14:08:59.641Z,86.93
2022-07-28T14:09:59.677Z,81.21
2022-07-28T14:10:59.678Z,83.96
2022-07-28T14:11:59.657Z,82.57
2022-07-28T14:12:59.725Z,82.46
2022-07-28T14:13:59.682Z,83.13
2022-07-28T14:14:59.685Z,83.60
2022-07-28T14:16:02.525Z,85.76
2022-07-28T14:17:00.251Z,82.05
2022-07-28T14:17:59.671Z,83.14
2022-07-28T14:18:59.824Z,81.85
2022-07-28T14:19:59.853Z,83.78
2022-07-28T14:20:59.744Z,83.34
2022-07-28T14:21:59.670Z,82.69
2022-07-28T14:22:59.730Z,83.32
2022-07-28T14:23:59.664Z,82.80
2022-07-28T14:24:59.654Z,85.92
2022-07-28T14:26:25.234Z,85.10
2022-07-28T14:26:59.684Z,83.71
2022-07-28T14:27:59.724Z,83.47
2022-07-28T14:28:59.690Z,88.14
2022-07-28T14:29:59.984Z,84.66
2022-07-28T14:30:59.734Z,89.32
2022-07-28T14:31:59.813Z,83.88
2022-07-28T14:32:59.723Z,83.59
2022-07-28T14:33:59.723Z,84.49
2022-07-28T14:34:59.728Z,85.61
2022-07-28T14:35:59.721Z,84.08
2022-07-28T14:36:59.732Z,84.24
2022-07-28T14:38:59.772Z,87.21
2022-07-28T14:39:59.805Z,86.61
2022-07-28T14:40:59.774Z,86.54
2022-07-28T14:41:59.804Z,87.66
2022-07-28T14:42:59.830Z,87.27
2022-07-28T14:43:59.794Z,85.14
2022-07-28T14:45:00.319Z,84.58
2022-07-28T14:46:13.563Z,85.22
2022-07-28T14:46:59.846Z,86.10
2022-07-28T14:47:59.826Z,84.43
2022-07-28T14:48:59.828Z,84.95
2022-07-28T14:50:00.263Z,85.74
2022-07-28T14:50:59.780Z,84.57
2022-07-28T14:51:59.851Z,85.43
2022-07-28T14:52:59.849Z,85.48
2022-07-28T14:53:59.831Z,83.46
2022-07-28T14:55:00.099Z,83.97
2022-07-28T14:55:59.852Z,86.15
2022-07-28T14:56:59.851Z,85.20
2022-07-28T14:57:59.862Z,84.17
2022-07-28T14:58:59.862Z,84.29
2022-07-28T15:00:00.135Z,86.24
2022-07-28T15:00:59.863Z,86.87
2022-07-28T15:01:59.949Z,86.07
2022-07-28T15:02:59.979Z,87.22
2022-07-28T15:04:00.010Z,86.93
2022-07-28T15:05:00.063Z,88.64
2022-07-28T15:06:00.037Z,86.99
2022-07-28T15:07:00.088Z,86.36
2022-07-28T15:08:00.006Z,87.31
2022-07-28T15:09:00.107Z,87.40
2022-07-28T15:10:00.155Z,88.29
2022-07-28T15:11:00.168Z,91.12
2022-07-28T15:12:00.179Z,89.64
2022-07-28T15:13:00.224Z,86.37
2022-07-28T15:14:00.238Z,89.41
2022-07-28T15:15:00.415Z,85.76
2022-07-28T15:16:00.477Z,85.71
2022-07-28T15:17:00.295Z,85.27
2022-07-28T15:18:00.331Z,88.74
2022-07-28T15:19:00.361Z,86.94
2022-07-28T15:20:00.787Z,85.92
2022-07-28T15:21:00.386Z,87.32
2022-07-28T15:22:00.459Z,85.54
2022-07-28T15:23:00.374Z,88.30
2022-07-28T15:24:00.561Z,86.54
2022-07-28T15:25:00.876Z,88.43
2022-07-28T15:26:00.541Z,90.75
2022-07-28T15:27:00.567Z,86.54
2022-07-28T15:28:00.577Z,85.97
2022-07-28T15:29:00.614Z,85.02
2022-07-28T15:30:02.679Z,86.68
2022-07-28T15:31:00.681Z,87.10
2022-07-28T15:32:00.693Z,85.86
2022-07-28T15:33:00.643Z,86.57
2022-07-28T15:34:00.815Z,87.98
2022-07-28T15:35:00.671Z,91.13
2022-07-28T15:36:00.603Z,93.52
2022-07-28T15:37:00.567Z,91.08
2022-07-28T15:38:00.633Z,90.65
2022-07-28T15:39:00.673Z,87.65
2022-07-28T15:40:00.946Z,89.76
2022-07-28T15:41:00.715Z,88.16
2022-07-28T15:42:00.677Z,89.84
2022-07-28T15:43:00.714Z,88.12
2022-07-28T15:44:00.648Z,92.43
2022-07-28T15:45:01.421Z,89.03
2022-07-28T15:46:00.690Z,88.48
2022-07-28T15:47:00.752Z,89.09
2022-07-28T15:48:00.673Z,91.08
2022-07-28T15:49:00.718Z,93.02
2022-07-28T15:50:00.982Z,97.98
2022-07-28T15:51:00.589Z,94.44
2022-07-28T15:52:01.094Z,95.76
2022-07-28T15:53:00.694Z,93.13
2022-07-28T15:54:00.723Z,90.62
2022-07-28T15:55:00.697Z,89.02
2022-07-28T15:56:00.707Z,91.73
2022-07-28T15:57:00.739Z,91.31
2022-07-28T15:58:00.743Z,90.56
2022-07-28T15:59:00.728Z,90.49
2022-07-28T16:00:00.662Z,92.55
2022-07-28T16:01:01.660Z,93.83
2022-07-28T16:02:00.791Z,92.83
2022-07-28T16:03:00.781Z,93.01
2022-07-28T16:04:00.739Z,92.10
2022-07-28T16:05:00.715Z,90.80
2022-07-28T16:06:00.741Z,91.69
2022-07-28T16:07:00.672Z,91.00
2022-07-28T16:08:00.757Z,90.18
2022-07-28T16:09:00.743Z,92.51
2022-07-28T16:10:00.735Z,91.36
2022-07-28T16:11:00.771Z,92.91
2022-07-28T16:12:00.771Z,89.13
2022-07-28T16:13:00.774Z,90.84
2022-07-28T16:14:00.761Z,94.10
2022-07-28T16:15:00.783Z,89.89
2022-07-28T16:16:00.827Z,89.86
2022-07-28T16:17:00.826Z,90.11
2022-07-28T16:18:00.761Z,93.50
2022-07-28T16:19:00.756Z,90.36
2022-07-28T16:20:02.340Z,88.78
2022-07-28T16:21:00.809Z,89.01
2022-07-28T16:22:00.786Z,88.90
2022-07-28T16:23:00.781Z,88.54
2022-07-28T16:24:00.809Z,97.19
2022-07-28T16:25:00.813Z,100.00
2022-07-28T16:26:00.725Z,100.00
2022-07-28T16:27:00.748Z,94.92
2022-07-28T16:28:00.785Z,89.58
2022-07-28T16:29:00.794Z,91.20
2022-07-28T16:30:01.745Z,95.23
2022-07-28T16:31:00.876Z,100.00
2022-07-28T16:32:00.830Z,93.87
2022-07-28T16:33:00.793Z,95.63
2022-07-28T16:34:00.810Z,100.00
2022-07-28T16:35:00.848Z,92.21
2022-07-28T16:36:00.828Z,99.31
2022-07-28T16:37:00.805Z,94.82
2022-07-28T16:38:00.827Z,95.19
2022-07-28T16:39:00.750Z,95.42
2022-07-28T16:40:00.818Z,97.54
2022-07-28T16:41:00.823Z,95.71
2022-07-28T16:42:01.476Z,99.04
2022-07-28T16:43:00.789Z,98.20
2022-07-28T16:44:00.807Z,97.67
2022-07-28T16:45:01.042Z,97.98
2022-07-28T16:46:00.864Z,95.17
2022-07-28T16:47:00.819Z,97.90
2022-07-28T16:48:00.815Z,96.58
2022-07-28T16:49:00.890Z,97.19
2022-07-28T16:50:00.891Z,95.00
2022-07-28T16:51:00.857Z,97.05
2022-07-28T16:52:00.840Z,98.57
2022-07-28T16:53:00.844Z,92.93
2022-07-28T16:54:00.781Z,91.24
2022-07-28T16:55:00.905Z,94.41
2022-07-28T16:56:00.876Z,97.11
2022-07-28T16:57:00.900Z,94.04
2022-07-28T16:58:00.805Z,91.22
2022-07-28T16:59:00.925Z,93.72
2022-07-28T17:00:00.951Z,96.02
2022-07-28T17:01:00.816Z,94.49
2022-07-28T17:02:00.927Z,97.79
2022-07-28T17:03:00.871Z,93.29
2022-07-28T17:04:00.894Z,98.06
2022-07-28T17:05:00.965Z,97.58
2022-07-28T17:06:00.888Z,97.10
2022-07-28T17:07:00.834Z,93.83
